Smith Valley, Nevada Weather observations

Data are for 10 minute period ending at time listed.
 Day   Time   Solar   Ave.   Ave.  Ave.  Vector  Max.   Baro.   Total    
  of    of     Rad.   Air    Rel.  Wind   Wind   Wind  Press.  Precip.   
Year   Day            Temp.  Hum.  Speed  Dir.   Gust                    
2014   (PST)  Kw/m2    F      %     mph   deg.    mph    mb.     in.     
-------------------------------------------------------------------------
 302   22:50   0.00   40.4    56    2.2   178     5.3   855.1    0.00 
 302   23:00   0.00   40.8    56    2.8   150     4.0   855.1    0.00 
 302   23:10   0.00   38.5    59    4.0   174     5.3   855.0    0.00 
 302   23:20   0.00   37.2    63    3.0   194     5.0   854.9    0.00 
 302   23:30   0.00   38.1    62    4.6   180     6.8   854.8    0.00 
 302   23:40   0.00   39.0    60    3.9   170     6.1   854.8    0.00 
 302   23:50   0.00   38.8    60    1.3   217     2.3   854.7    0.00 
 303    0:00   0.00   41.1    54    2.2   151     4.2   854.7    0.00 
 303    0:10   0.00   39.6    56    1.8   203     3.7   854.7    0.00 
 303    0:20   0.00   43.1    51    1.9   299     3.8   854.6    0.00 
 303    0:30   0.00   40.6    55    1.3   124     4.0   854.7    0.00 
 303    0:40   0.00   38.3    59    3.8   102     6.8   854.6    0.00 
 303    0:50   0.00   37.6    61    3.5   166     5.9   854.6    0.00 
 303    1:00   0.00   35.4    67    4.8   154     6.1   854.6    0.00 
 303    1:10   0.00   36.9    64    3.3   134     5.5   854.5    0.00 
 303    1:20   0.00   36.5    63    2.1   150     3.1   854.6    0.00 
 303    1:30   0.00   34.4    67    3.0   214     4.7   854.6    0.00 
 303    1:40   0.00   37.7    62    1.7   202     3.4   854.6    0.00 
 303    1:50   0.00   35.1    65    3.0   165     5.2   854.6    0.00 
 303    2:00   0.00   31.7    72    3.3   171     4.6   854.5    0.00 
 303    2:10   0.00   31.6    74    3.1   177     4.7   854.4    0.00 
 303    2:20   0.00   32.6    71    2.6   186     5.7   854.3    0.00 
 303    2:30   0.00   31.0    75    4.7   152     5.3   854.2    0.00 
 303    2:40   0.00   33.2    71    4.2   161     5.0   854.1    0.00 
 303    2:50   0.00   33.7    68    4.2   150     5.2   854.1    0.00 
 303    3:00   0.00   32.7    70    4.1   156     5.0   854.0    0.00 
 303    3:10   0.00   31.6    73    3.7   157     4.5   853.9    0.00 
 303    3:20   0.00   32.0    72    3.7   127     5.5   853.9    0.00 
 303    3:30   0.00   32.2    70    2.3   142     4.7   853.8    0.00 
 303    3:40   0.00   33.2    70    2.0   160     3.7   853.8    0.00 
 303    3:50   0.00   33.4    66    2.7   174     4.7   853.7    0.00 
 303    4:00   0.00   32.7    67    1.8   119     2.9   853.7    0.00 
 303    4:10   0.00   32.0    68    1.9    51     3.7   853.7    0.00 
 303    4:20   0.00   31.9    70    2.1   143     4.5   853.7    0.00 
 303    4:30   0.00   32.4    69    2.1   125     4.5   853.7    0.00 
 303    4:40   0.00   34.7    66    2.0   154     4.4   853.7    0.00 
 303    4:50   0.00   31.9    70    3.4   160     4.7   853.7    0.00 
 303    5:00   0.00   31.6    73    3.0   159     4.9   853.7    0.00 
 303    5:10   0.00   33.9    69    2.1   173     4.7   853.7    0.00 
 303    5:20   0.00   31.8    70    3.5   161     5.3   853.7    0.00 
 303    5:30   0.00   31.2    73    3.9   158     5.4   853.7    0.00 
 303    5:40   0.00   30.9    74    3.7   159     5.0   853.6    0.00 
 303    5:50   0.00   30.2    75    3.5   161     4.6   853.6    0.00 
 303    6:00   0.00   29.9    74    2.2   169     4.6   853.6    0.00 
 303    6:10   0.00   29.5    77    1.8   177     3.4   853.6    0.00 
 303    6:20   0.01   30.0    76    3.0   140     4.2   853.6    0.00 
 303    6:30   0.01   30.7    73    0.8   134     2.8   853.7    0.00 
 303    6:40   0.01   31.9    72    1.6   108     3.3   853.7    0.00 
 303    6:50   0.03   34.0    66    2.1   110     3.2   853.8    0.00 
 303    7:00   0.05   32.8    68    2.5   161     4.4   853.8    0.00 
 303    7:10   0.09   34.1    70    1.6   193     2.6   853.8    0.00 
 303    7:20   0.09   36.2    67    1.6   166     2.7   853.9    0.00 
 303    7:30   0.10   37.7    66    2.0   139     2.9   853.9    0.00 
 303    7:40   0.11   39.3    63    0.6    19     1.9   854.1    0.00 
 303    7:50   0.13   40.5    58    1.0   316     2.2   854.1    0.00 
 303    8:00   0.13   41.7    54    0.7    25     1.5   854.0    0.00 
 303    8:10   0.15   43.1    52    0.5   132     2.0   854.1    0.00 
 303    8:20   0.15   43.7    52    1.2   146     2.5   853.9    0.00 
 303    8:30   0.19   44.8    50    0.0   295     0.9   853.9    0.00 
 303    8:40   0.32   46.4    47    0.8   339     1.8   853.8    0.00 
 303    8:50   0.34   47.7    45    1.2   286     2.4   853.7    0.00 
 303    9:00   0.39   49.6    42    1.3   234     3.2   853.5    0.00 
 303    9:10   0.30   50.7    41    0.8   236     2.4   853.3    0.00 
 303    9:20   0.25   51.5    39    0.7    13     1.8   853.2    0.00 
 303    9:30   0.21   51.2    39    1.4   336     2.8   853.2    0.00 
 303    9:40   0.26   51.7    38    3.2   306     5.3   853.1    0.00 
 303    9:50   0.26   51.9    38    3.5   327     5.0   853.0    0.00 
 303   10:00   0.25   52.2    38    2.7   332     5.3   852.8    0.00 
 303   10:10   0.30   52.7    38    2.9   340     5.0   852.7    0.00 
 303   10:20   0.38   54.2    35    2.5   313     5.2   852.6    0.00 
 303   10:30   0.37   55.3    34    2.0   335     3.9   852.6    0.00 
 303   10:40   0.31   54.8    36    2.7    30     4.5   852.5    0.00 
 303   10:50   0.29   55.1    36    1.5    27     3.1   852.4    0.00 
 303   11:00   0.35   56.0    35    1.9   351     4.5   852.3    0.00 
 303   11:10   0.43   56.9    34    2.3   339     4.6   852.1    0.00 
 303   11:20   0.30   57.0    34    2.6   355     4.3   852.0    0.00 
 303   11:30   0.35   57.0    34    3.3   358     5.1   852.0    0.00 
 303   11:40   0.42   58.0    32    1.9   312     3.9   851.7    0.00 
 303   11:50   0.33   59.3    30    1.7   360     2.9   851.6    0.00 
 303   12:00   0.41   59.6    30    1.8    49     4.0   851.6    0.00 
 303   12:10   0.48   61.0    27    0.8   315     2.8   851.3    0.00 
 303   12:20   0.55   62.8    25    1.1   322     2.3   851.2    0.00 
 303   12:30   0.61   63.3    24    1.8    73     4.4   851.1    0.00 
 303   12:40   0.49   63.7    25    2.0    95     4.8   851.0    0.00 
 303   12:50   0.40   63.3    25    3.4    66     5.6   850.8    0.00 
 303   13:00   0.43   63.0    25    3.0    52     5.8   850.6    0.00 
 303   13:10   0.54   63.6    25    3.1    69     5.9   850.3    0.00 
 303   13:20   0.51   65.0    23    1.8   133     4.2   850.1    0.00 
 303   13:30   0.34   64.8    24    2.5    81     4.7   849.9    0.00 
 303   13:40   0.48   65.0    24    3.4    29     5.8   849.8    0.00 
 303   13:50   0.28   65.2    25    2.0    11     5.2   849.8    0.00 
 303   14:00   0.34   65.4    24    2.8   335     6.3   849.6    0.00 
 303   14:10   0.22   65.0    23    2.7   334     4.7   849.5    0.00 
 303   14:20   0.35   65.6    22    1.7   354     3.9   849.4    0.00 
 303   14:30   0.20   66.3    22    1.5   319     2.6   849.3    0.00 
 303   14:40   0.33   66.7    21    1.2   353     2.9   849.2    0.00 
 303   14:50   0.29   67.6    20    1.4   236     4.9   849.2    0.00 
 303   15:00   0.20   66.7    21    2.0   197     3.4   849.1    0.00 
 303   15:10   0.26   67.6    20    0.8   301     2.1   849.1    0.00 
 303   15:20   0.31   68.3    19    1.7   327     4.1   849.1    0.00 
 303   15:30   0.12   67.2    20    2.0   320     4.2   849.1    0.00 
 303   15:40   0.16   67.2    20    1.8   334     3.1   849.1    0.00 
 303   15:50   0.14   67.0    20    1.5    47     2.5   848.9    0.00 
 303   16:00   0.09   66.2    20    3.1    71     4.0   848.7    0.00 
 303   16:10   0.08   65.6    21    2.0   104     2.5   848.6    0.00 
 303   16:20   0.07   65.1    23    2.8   150     4.2   848.5    0.00 
 303   16:30   0.04   61.0    31    4.0   173     5.2   848.3    0.00 
 303   16:40   0.02   57.7    36    4.5   184     5.6   848.2    0.00 
 303   16:50   0.01   54.6    40    3.3   184     4.2   848.0    0.00 
 303   17:00   0.01   52.2    42    4.4   184     5.2   848.0    0.00 
 303   17:10   0.00   50.9    44    4.1   166     4.8   848.0    0.00 
 303   17:20   0.00   51.0    43    4.9   158     5.6   848.0    0.00 
 303   17:30   0.00   52.7    38    5.0   157     5.8   848.0    0.00 
 303   17:40   0.00   53.8    37    4.7   159     5.5   847.9    0.00 
 303   17:50   0.00   51.5    41    5.2   150     6.2   847.9    0.00 
 303   18:00   0.00   51.4    40    2.5   173     4.4   847.9    0.00 
 303   18:10   0.00   50.6    43    2.2   176     3.8   847.9    0.00 
 303   18:20   0.00   50.4    44    5.6   146     6.6   847.9    0.00 
 303   18:30   0.00   51.7    39    5.9   143     6.7   847.9    0.00 
 303   18:40   0.00   52.8    37    5.5   162     8.2   848.0    0.00 
 303   18:50   0.00   51.6    39    4.4   165     5.9   848.1    0.00 
 303   19:00   0.00   53.4    36    4.8   152     6.6   848.1    0.00 
 303   19:10   0.00   56.5    31    3.6   147     6.3   848.0    0.00 
 303   19:20   0.00   56.7    30    3.3   149     5.8   847.8    0.00 
 303   19:30   0.00   54.9    32    4.2   213     6.1   847.9    0.00 
 303   19:40   0.00   55.7    30    4.8   216     6.8   847.8    0.00 
 303   19:50   0.00   56.9    28    2.9   210     5.3   847.8    0.00 
 303   20:00   0.00   54.2    31    3.5   157     5.7   847.8    0.00 
 303   20:10   0.00   54.1    32    2.5   174     6.2   847.8    0.00 
 303   20:20   0.00   57.2    28    3.0   169     5.8   847.9    0.00 
 303   20:30   0.00   58.8    26    3.1   171     6.5   848.0    0.00 
 303   20:40   0.00   55.0    30    6.7   168    11.8   848.0    0.00 
 303   20:50   0.00   53.2    32    6.5   133     9.4   847.9    0.00 
 303   21:00   0.00   55.2    29    2.2   112     6.3   847.8    0.00 
 303   21:10   0.00   54.2    30    2.7   152     4.7   847.8    0.00 
 303   21:20   0.00   54.0    31    5.5   176     8.6   847.8    0.00 
 303   21:30   0.00   51.5    33    7.4   180    10.1   847.8    0.00 
 303   21:40   0.00   53.9    30    6.9   153     9.3   847.7    0.00 
 303   21:50   0.00   53.7    31    4.9   174     8.4   847.6    0.00 
 303   22:00   0.00   52.4    32    4.8   148     7.6   847.7    0.00 
 303   22:10   0.00   54.4    27    3.1   228     8.6   847.7    0.00 
 303   22:20   0.00   61.7    17    7.6   245    12.9   847.7    0.00 
 303   22:30   0.00   57.3    24    2.5    29     5.8   847.6    0.00 
 303   22:40   0.00   54.9    25    3.2   222     9.3   847.5    0.00 

Return to Smith Valley graphs page.


Western Regional Climate Center,wrcc@dri.edu